Time;durP1;ratioP1;P1;durP2;ratioP2;P2;SDS_P1;SDS_P2;PMS_P1;PMS_P2;Temp;Humidity;BMP_temperature;BMP_pressure;BME280_temperature;BME280_humidity;BME280_pressure;Samples;Min_cycle;Max_cycle;Signal;HPM_P1;HPM_P2
2022/11/14 00:00:29;;;;;;;19.23;16.47;;;-14.20;99.90;;;;;;5090762;28;20174;-77
2022/11/14 00:02:59;;;;;;;19.97;17.27;;;-14.40;99.90;;;;;;5082751;28;20723;-75
2022/11/14 00:05:25;;;;;;;26.40;18.73;;;-14.10;99.90;;;;;;5106030;27;20431;-77
2022/11/14 00:07:51;;;;;;;19.00;16.67;;;-14.70;99.90;;;;;;5113609;27;20421;-75
2022/11/14 00:10:18;;;;;;;18.43;15.23;;;-13.10;99.90;;;;;;5097612;28;20423;-74
2022/11/14 00:12:44;;;;;;;21.17;16.80;;;-13.00;99.90;;;;;;5092648;28;20262;-74
2022/11/14 00:15:10;;;;;;;19.67;15.17;;;-13.70;99.90;;;;;;5097790;28;20569;-74
2022/11/14 00:17:36;;;;;;;22.40;17.63;;;-14.20;99.90;;;;;;5091662;28;20184;-76
2022/11/14 00:20:04;;;;;;;22.03;16.17;;;-13.80;99.90;;;;;;5085973;28;20430;-75
2022/11/14 00:22:29;;;;;;;20.50;16.67;;;-14.40;99.90;;;;;;5097524;28;20190;-73
2022/11/14 00:24:55;;;;;;;22.43;15.23;;;-14.60;99.90;;;;;;5097127;28;20431;-73
2022/11/14 00:27:21;;;;;;;17.53;15.73;;;-14.40;99.90;;;;;;5089774;28;20228;-74
2022/11/14 00:29:47;;;;;;;22.50;17.03;;;-14.70;99.90;;;;;;5087332;28;20186;-73
2022/11/14 00:32:13;;;;;;;20.30;17.57;;;-14.40;99.90;;;;;;5097636;28;20182;-74
2022/11/14 00:34:39;;;;;;;21.97;16.63;;;-11.30;99.90;;;;;;5086249;28;20532;-74
2022/11/14 00:37:04;;;;;;;23.10;17.90;;;-13.60;99.90;;;;;;5083813;28;20192;-74
2022/11/14 00:39:30;;;;;;;23.20;17.00;;;-13.80;99.90;;;;;;5085367;28;20198;-78
2022/11/14 00:41:56;;;;;;;20.20;16.60;;;-13.80;99.90;;;;;;5092624;28;20186;-74
2022/11/14 00:44:22;;;;;;;21.43;15.50;;;-12.80;99.90;;;;;;5097553;28;20202;-75
2022/11/14 00:46:48;;;;;;;25.07;16.57;;;-13.30;99.90;;;;;;5093504;28;20183;-74
2022/11/14 00:49:13;;;;;;;22.17;15.67;;;-13.00;99.90;;;;;;5094117;28;20652;-75
2022/11/14 00:51:39;;;;;;;20.20;16.77;;;-13.20;99.90;;;;;;5095947;28;20331;-73
2022/11/14 00:54:05;;;;;;;20.00;17.33;;;-13.40;99.90;;;;;;5091456;28;20183;-73
2022/11/14 00:56:31;;;;;;;19.00;17.00;;;-13.60;99.90;;;;;;5091169;28;20207;-73
2022/11/14 00:58:57;;;;;;;20.60;17.97;;;-13.70;99.90;;;;;;5092645;28;20189;-75
2022/11/14 01:01:22;;;;;;;22.70;16.63;;;-15.10;99.90;;;;;;5097091;28;20431;-75
2022/11/14 01:03:49;;;;;;;17.33;15.10;;;-13.70;99.90;;;;;;5095964;28;20198;-75
2022/11/14 01:06:16;;;;;;;17.90;15.83;;;-13.60;99.90;;;;;;5095882;28;20190;-74
2022/11/14 01:08:43;;;;;;;19.37;15.90;;;-12.90;99.90;;;;;;5096896;28;20426;-77
2022/11/14 01:11:26;;;;;;;19.90;15.30;;;-12.90;99.90;;;;;;5097116;28;20555;-76
2022/11/14 01:13:52;;;;;;;22.97;16.40;;;-12.90;99.90;;;;;;5090704;28;20866;-77
2022/11/14 01:16:18;;;;;;;23.77;15.77;;;-13.10;99.90;;;;;;5087299;28;20467;-76
2022/11/14 01:18:45;;;;;;;24.57;17.40;;;-11.80;99.90;;;;;;5083989;28;20175;-75
2022/11/14 01:21:12;;;;;;;26.53;18.10;;;-13.00;99.90;;;;;;5090079;28;20434;-74
2022/11/14 01:23:38;;;;;;;21.10;15.93;;;-13.00;99.90;;;;;;5086231;28;20441;-74
2022/11/14 01:26:11;;;;;;;20.90;15.50;;;-13.00;99.90;;;;;;5096802;28;20882;-74
2022/11/14 01:28:37;;;;;;;20.13;16.20;;;-13.50;99.90;;;;;;5095675;28;20438;-74
2022/11/14 01:31:18;;;;;;;18.37;14.50;;;-13.10;99.90;;;;;;5086634;28;20438;-74
2022/11/14 01:33:47;;;;;;;17.17;15.33;;;-13.30;99.90;;;;;;5084000;28;20427;-74
2022/11/14 01:36:12;;;;;;;18.73;16.77;;;-14.50;99.90;;;;;;5087862;28;20466;-75
2022/11/14 01:38:38;;;;;;;20.10;16.67;;;-14.60;99.90;;;;;;5088590;28;20431;-75
2022/11/14 01:41:05;;;;;;;17.23;15.53;;;-14.80;99.90;;;;;;5092035;28;20182;-75
2022/11/14 01:43:34;;;;;;;17.83;14.30;;;-12.20;99.90;;;;;;5095941;28;20578;-73
2022/11/14 01:46:05;;;;;;;15.30;13.67;;;-14.30;99.90;;;;;;5091452;28;20431;-74
2022/11/14 01:48:37;;;;;;;19.07;15.27;;;-13.50;99.90;;;;;;5094389;28;20923;-74
2022/11/14 01:51:20;;;;;;;18.63;15.57;;;-14.10;99.90;;;;;;5077656;28;20851;-74
2022/11/14 01:53:49;;;;;;;18.50;14.63;;;-14.50;99.90;;;;;;5084981;28;20434;-73
2022/11/14 01:56:18;;;;;;;27.00;18.60;;;-13.40;99.90;;;;;;5094969;28;20546;-73
2022/11/14 01:58:50;;;;;;;19.37;15.90;;;-13.90;99.90;;;;;;5096097;28;20423;-73
2022/11/14 02:01:16;;;;;;;17.47;15.47;;;-14.60;99.90;;;;;;5090784;28;20481;-74
2022/11/14 02:03:45;;;;;;;20.57;15.67;;;-12.70;99.90;;;;;;5089306;28;20447;-73
2022/11/14 02:06:15;;;;;;;19.97;13.97;;;-13.50;99.90;;;;;;5086359;28;20423;-73
2022/11/14 02:08:42;;;;;;;16.60;14.83;;;-13.00;99.90;;;;;;5094561;28;20434;-73
2022/11/14 02:11:10;;;;;;;20.93;16.13;;;-12.40;99.90;;;;;;5096011;28;20433;-73
2022/11/14 02:13:37;;;;;;;20.47;16.17;;;-14.10;99.90;;;;;;5095865;28;20521;-74
2022/11/14 02:16:03;;;;;;;19.93;16.43;;;-13.90;99.90;;;;;;5090418;28;20467;-73
2022/11/14 02:18:28;;;;;;;14.83;12.80;;;-13.70;99.90;;;;;;5086171;28;20723;-73
2022/11/14 02:20:54;;;;;;;17.20;15.40;;;-12.90;99.90;;;;;;5095055;28;20431;-73
2022/11/14 02:23:28;;;;;;;21.17;14.30;;;-13.50;99.90;;;;;;5084464;28;20183;-77
2022/11/14 02:25:54;;;;;;;17.20;14.70;;;-13.00;99.90;;;;;;5090031;28;20225;-77
2022/11/14 02:28:20;;;;;;;19.60;15.17;;;-11.80;99.90;;;;;;5080556;28;20437;-76
2022/11/14 02:30:47;;;;;;;17.63;14.73;;;-13.40;99.90;;;;;;5093466;28;20435;-76
2022/11/14 02:33:13;;;;;;;20.20;15.83;;;-14.60;99.90;;;;;;5089601;28;20439;-76
2022/11/14 02:35:39;;;;;;;17.30;13.17;;;-14.60;99.90;;;;;;5111445;28;20548;-76
2022/11/14 02:38:05;;;;;;;17.90;14.17;;;-12.20;99.90;;;;;;5091686;28;20453;-75
2022/11/14 02:40:31;;;;;;;25.90;15.30;;;-15.10;99.90;;;;;;5090269;28;20834;-77
2022/11/14 02:42:57;;;;;;;21.53;16.73;;;-14.80;99.90;;;;;;5091055;28;20505;-76
2022/11/14 02:45:23;;;;;;;16.33;13.57;;;-14.80;99.90;;;;;;5093536;28;20430;-77
2022/11/14 02:47:49;;;;;;;19.00;13.33;;;-14.00;99.90;;;;;;5086029;28;20478;-74
2022/11/14 02:50:15;;;;;;;19.57;14.97;;;-13.70;99.90;;;;;;5091941;28;20186;-74
2022/11/14 02:52:40;;;;;;;19.73;14.40;;;-14.40;99.90;;;;;;5111348;28;20243;-75
2022/11/14 02:55:06;;;;;;;18.30;14.03;;;-11.90;99.90;;;;;;5095715;28;20462;-74
2022/11/14 02:57:32;;;;;;;14.83;13.13;;;-14.60;99.90;;;;;;5095536;28;20266;-74
2022/11/14 02:59:58;;;;;;;17.67;13.03;;;-14.20;99.90;;;;;;5095459;28;20514;-77
2022/11/14 03:02:24;;;;;;;16.07;12.93;;;-13.20;99.90;;;;;;5094779;28;20194;-74
2022/11/14 03:04:50;;;;;;;22.33;14.03;;;-14.60;99.90;;;;;;5092479;28;20213;-73
2022/11/14 03:07:16;;;;;;;17.20;13.10;;;-14.20;99.90;;;;;;5086138;28;20438;-72
2022/11/14 03:09:41;;;;;;;16.47;14.37;;;-13.80;99.90;;;;;;5083538;28;20210;-73
2022/11/14 03:12:07;;;;;;;16.43;13.80;;;-14.70;99.90;;;;;;5087966;28;20186;-72
2022/11/14 03:14:33;;;;;;;16.67;14.00;;;-14.10;99.90;;;;;;5082596;28;20187;-72
2022/11/14 03:16:59;;;;;;;19.93;14.40;;;-15.00;99.90;;;;;;5094985;28;20183;-76
2022/11/14 03:19:25;;;;;;;16.47;13.33;;;-15.20;99.90;;;;;;5095308;28;20244;-73
2022/11/14 03:21:51;;;;;;;15.47;12.63;;;-14.10;99.90;;;;;;5084272;28;20859;-74
2022/11/14 03:24:16;;;;;;;16.67;14.13;;;-13.80;99.90;;;;;;5088592;28;20187;-76
2022/11/14 03:26:43;;;;;;;13.47;11.97;;;-14.90;99.90;;;;;;5087424;28;20197;-73
2022/11/14 03:29:08;;;;;;;14.53;12.43;;;-15.10;99.90;;;;;;5085325;28;20175;-75
2022/11/14 03:31:34;;;;;;;14.37;12.93;;;-16.00;99.90;;;;;;5088135;28;20758;-77
2022/11/14 03:34:00;;;;;;;17.33;13.37;;;-14.90;99.90;;;;;;5095192;28;20198;-75
2022/11/14 03:36:25;;;;;;;15.83;13.57;;;-14.90;99.90;;;;;;5090641;28;20211;-75
2022/11/14 03:38:52;;;;;;;15.10;13.37;;;-15.10;99.90;;;;;;5096863;28;20183;-76
2022/11/14 03:41:17;;;;;;;16.10;12.57;;;-14.10;99.90;;;;;;5087790;28;20183;-75
2022/11/14 03:43:43;;;;;;;16.10;12.70;;;-14.70;99.90;;;;;;5083141;28;20508;-73
2022/11/14 03:46:09;;;;;;;15.67;12.93;;;-14.50;99.90;;;;;;5091206;28;20182;-76
2022/11/14 03:48:35;;;;;;;15.50;12.53;;;-14.10;99.90;;;;;;5098844;28;20543;-76
2022/11/14 03:51:00;;;;;;;16.60;13.17;;;-14.80;99.90;;;;;;5093728;28;20186;-76
2022/11/14 03:53:27;;;;;;;16.03;12.43;;;-15.50;99.90;;;;;;5095115;28;20489;-77
2022/11/14 03:55:53;;;;;;;14.03;12.33;;;-15.20;99.90;;;;;;5094151;28;20258;-75
2022/11/14 03:58:19;;;;;;;14.73;11.50;;;-15.10;99.90;;;;;;5096848;28;20435;-75
2022/11/14 04:00:45;;;;;;;17.27;12.03;;;-15.70;99.90;;;;;;5084142;28;20274;-74
2022/11/14 04:03:11;;;;;;;15.03;11.97;;;-15.30;99.90;;;;;;5097331;28;20447;-74
2022/11/14 04:05:37;;;;;;;14.73;12.60;;;-14.70;99.90;;;;;;5098521;28;20488;-76
2022/11/14 04:08:05;;;;;;;14.30;11.13;;;-14.70;99.90;;;;;;5094510;28;20187;-75
2022/11/14 04:10:31;;;;;;;13.23;11.23;;;-14.80;99.90;;;;;;5091039;28;20178;-76
2022/11/14 04:12:58;;;;;;;15.50;12.27;;;-15.30;99.90;;;;;;5098275;28;20877;-74
2022/11/14 04:15:24;;;;;;;11.77;10.63;;;-14.10;99.90;;;;;;5084839;28;20573;-75
2022/11/14 04:17:50;;;;;;;14.47;12.80;;;-14.80;99.90;;;;;;5089166;28;20813;-75
2022/11/14 04:20:16;;;;;;;19.33;12.10;;;-14.10;99.90;;;;;;5081616;28;20846;-76
2022/11/14 04:22:42;;;;;;;15.43;12.47;;;-13.40;99.90;;;;;;5101282;28;20433;-75
2022/11/14 04:25:08;;;;;;;14.10;11.37;;;-13.00;99.90;;;;;;5095041;28;20217;-76
2022/11/14 04:27:34;;;;;;;16.70;12.23;;;-14.40;99.90;;;;;;5079025;28;20191;-75
2022/11/14 04:30:00;;;;;;;14.57;11.23;;;-13.80;99.90;;;;;;5093826;28;20816;-75
2022/11/14 04:32:25;;;;;;;13.27;11.90;;;-14.80;99.90;;;;;;5090748;28;20202;-76
2022/11/14 04:34:51;;;;;;;16.63;12.90;;;-14.20;99.90;;;;;;5093792;28;20215;-76
2022/11/14 04:37:17;;;;;;;13.10;11.17;;;-14.40;99.90;;;;;;5108637;27;20187;-76
2022/11/14 04:39:43;;;;;;;18.60;13.33;;;-14.10;99.90;;;;;;5092251;28;20171;-75
2022/11/14 04:42:09;;;;;;;16.23;12.63;;;-14.80;99.90;;;;;;5094773;28;20185;-76
2022/11/14 04:44:35;;;;;;;14.27;11.70;;;-14.40;99.90;;;;;;5097407;28;20178;-76
2022/11/14 04:47:01;;;;;;;15.60;11.20;;;-14.50;99.90;;;;;;5097319;28;20186;-76
2022/11/14 04:49:26;;;;;;;17.20;12.23;;;-14.40;99.90;;;;;;5096831;28;20423;-76
2022/11/14 04:51:52;;;;;;;11.90;10.10;;;-15.10;99.90;;;;;;5097384;28;20194;-77
2022/11/14 04:54:18;;;;;;;12.67;10.90;;;-14.70;99.90;;;;;;5097595;28;20174;-76
2022/11/14 04:56:44;;;;;;;16.87;9.83;;;-14.30;99.90;;;;;;5089879;28;20517;-76
2022/11/14 04:59:10;;;;;;;11.80;9.47;;;-15.10;99.90;;;;;;5086706;28;20266;-76
2022/11/14 05:01:35;;;;;;;12.70;10.67;;;-15.40;99.90;;;;;;5086582;28;20198;-75
2022/11/14 05:04:01;;;;;;;13.70;10.70;;;-16.10;99.90;;;;;;5087920;28;20486;-75
2022/11/14 05:06:27;;;;;;;15.50;11.20;;;-15.20;99.90;;;;;;5096048;28;20209;-76
2022/11/14 05:08:52;;;;;;;14.23;11.27;;;-15.70;99.90;;;;;;5097029;28;20233;-75
2022/11/14 05:11:19;;;;;;;15.60;11.57;;;-14.60;99.90;;;;;;5088557;28;20183;-74
2022/11/14 05:13:45;;;;;;;14.47;10.53;;;-15.70;99.90;;;;;;5091391;28;20654;-77
2022/11/14 05:16:12;;;;;;;12.57;10.10;;;-14.30;99.90;;;;;;5095424;28;20763;-75
2022/11/14 05:18:38;;;;;;;16.23;11.03;;;-14.30;99.90;;;;;;5086131;28;20533;-75
2022/11/14 05:21:04;;;;;;;12.80;9.67;;;-14.90;99.90;;;;;;5092082;28;20438;-75
2022/11/14 05:23:31;;;;;;;15.33;10.00;;;-15.00;99.90;;;;;;5095775;28;20449;-76
2022/11/14 05:26:05;;;;;;;15.20;10.77;;;-14.10;99.90;;;;;;5092027;28;20437;-75
2022/11/14 05:28:32;;;;;;;18.27;11.97;;;-14.90;99.90;;;;;;5083493;28;20866;-74
2022/11/14 05:31:12;;;;;;;10.83;8.90;;;-14.90;99.90;;;;;;5078336;28;20454;-75
2022/11/14 05:33:38;;;;;;;11.73;9.63;;;-14.40;99.90;;;;;;5092395;28;20741;-75
2022/11/14 05:36:06;;;;;;;17.53;10.60;;;-14.90;99.90;;;;;;5093275;28;20532;-76
2022/11/14 05:38:33;;;;;;;12.93;9.90;;;-15.20;99.90;;;;;;5090671;28;20477;-76
2022/11/14 05:40:59;;;;;;;16.03;9.40;;;-14.70;99.90;;;;;;5091953;28;20427;-76
2022/11/14 05:43:28;;;;;;;11.03;9.03;;;-14.70;99.90;;;;;;5095127;28;20470;-76
2022/11/14 05:46:01;;;;;;;10.77;9.67;;;-12.90;99.90;;;;;;5086319;28;20854;-76
2022/11/14 05:48:28;;;;;;;10.37;8.63;;;-15.30;99.90;;;;;;5088168;28;20431;-76
2022/11/14 05:50:57;;;;;;;9.67;8.40;;;-14.70;99.90;;;;;;5096195;28;20455;-76
2022/11/14 05:53:24;;;;;;;9.67;7.43;;;-15.60;99.90;;;;;;5085302;28;20521;-76
2022/11/14 05:55:50;;;;;;;13.13;9.17;;;-15.50;99.90;;;;;;5090357;28;20456;-75
2022/11/14 05:58:16;;;;;;;13.87;8.70;;;-15.80;99.90;;;;;;5091443;28;20488;-76
2022/11/14 06:00:41;;;;;;;11.63;8.90;;;-16.10;99.90;;;;;;5087296;28;20180;-75
2022/11/14 06:03:07;;;;;;;11.17;7.83;;;-16.20;99.90;;;;;;5088000;28;20455;-76
2022/11/14 06:05:35;;;;;;;9.33;7.43;;;-15.80;99.90;;;;;;5079930;28;20555;-77
2022/11/14 06:08:01;;;;;;;12.10;8.53;;;-13.60;99.90;;;;;;5090785;28;20216;-76
2022/11/14 06:10:28;;;;;;;14.00;9.57;;;-15.60;99.90;;;;;;5089663;28;20514;-76
2022/11/14 06:12:54;;;;;;;11.13;8.10;;;-15.90;99.90;;;;;;5091956;28;20439;-76
2022/11/14 06:15:20;;;;;;;10.77;8.47;;;-15.40;99.90;;;;;;5095788;28;20467;-75
2022/11/14 06:17:46;;;;;;;13.07;9.33;;;-15.30;99.90;;;;;;5090700;28;20240;-74
2022/11/14 06:20:12;;;;;;;17.00;8.63;;;-15.30;99.90;;;;;;5088197;28;20518;-76
2022/11/14 06:22:39;;;;;;;12.03;8.07;;;-15.00;99.90;;;;;;5091789;28;20419;-74
2022/11/14 06:25:05;;;;;;;13.17;8.87;;;-15.20;99.90;;;;;;5085035;28;20541;-74
2022/11/14 06:27:31;;;;;;;15.33;9.47;;;-15.40;99.90;;;;;;5095787;28;20431;-75
2022/11/14 06:29:57;;;;;;;15.03;9.00;;;-15.90;99.90;;;;;;5095733;28;20439;-77
2022/11/14 06:32:23;;;;;;;14.57;7.77;;;-15.90;99.90;;;;;;5095245;28;20189;-77
2022/11/14 06:34:52;;;;;;;10.60;7.47;;;-16.30;99.90;;;;;;5090656;28;20214;-77
2022/11/14 06:37:17;;;;;;;11.43;9.63;;;-16.00;99.90;;;;;;5084881;28;20438;-77
2022/11/14 06:39:43;;;;;;;13.00;8.33;;;-15.50;99.90;;;;;;5089221;28;20434;-77
2022/11/14 06:42:09;;;;;;;12.73;7.73;;;-15.70;99.90;;;;;;5088491;28;20212;-75
2022/11/14 06:44:35;;;;;;;11.70;8.47;;;-14.90;99.90;;;;;;5080664;28;20227;-73
2022/11/14 06:47:01;;;;;;;12.77;7.97;;;-14.80;99.90;;;;;;5095489;28;20234;-76
2022/11/14 06:49:26;;;;;;;11.43;8.73;;;-15.00;99.90;;;;;;5093575;28;20189;-74
2022/11/14 06:51:53;;;;;;;13.00;8.87;;;-15.20;99.90;;;;;;5085400;28;20620;-76
2022/11/14 06:54:18;;;;;;;12.17;8.23;;;-15.50;99.90;;;;;;5085976;28;20231;-76
2022/11/14 06:56:44;;;;;;;15.23;8.50;;;-15.60;99.90;;;;;;5089727;28;20451;-74
2022/11/14 06:59:10;;;;;;;12.27;8.77;;;-15.80;99.90;;;;;;5090936;28;20637;-75
2022/11/14 07:01:36;;;;;;;13.23;8.27;;;-15.30;99.90;;;;;;5095318;28;20221;-77
2022/11/14 07:04:02;;;;;;;13.10;8.03;;;-14.90;99.90;;;;;;5094072;28;20191;-75
2022/11/14 07:06:29;;;;;;;19.87;9.00;;;-14.90;99.90;;;;;;5087214;28;20183;-74
2022/11/14 07:08:56;;;;;;;11.73;8.47;;;-14.30;99.90;;;;;;5092534;28;20262;-74
2022/11/14 07:11:28;;;;;;;16.90;8.80;;;-15.10;99.90;;;;;;5100784;28;20423;-76
2022/11/14 07:13:57;;;;;;;16.67;9.20;;;-14.50;99.90;;;;;;5079781;28;20788;-75
2022/11/14 07:16:28;;;;;;;10.67;8.70;;;-14.20;99.90;;;;;;5092233;28;20460;-75
2022/11/14 07:18:54;;;;;;;14.27;9.93;;;-14.70;99.90;;;;;;5099114;28;20541;-75
2022/11/14 07:21:20;;;;;;;16.53;12.87;;;-14.50;99.90;;;;;;5098929;28;20461;-75
2022/11/14 07:23:46;;;;;;;17.77;11.40;;;-14.50;99.90;;;;;;5107616;27;20463;-76
2022/11/14 07:26:12;;;;;;;23.90;11.00;;;-15.00;99.90;;;;;;5086392;28;20210;-74
2022/11/14 07:28:42;;;;;;;17.10;9.83;;;-15.10;99.90;;;;;;5097901;28;20182;-76
2022/11/14 07:31:11;;;;;;;12.67;10.27;;;-14.90;99.90;;;;;;5087767;28;20194;-73
2022/11/14 07:33:38;;;;;;;24.50;11.07;;;-14.90;99.90;;;;;;5093900;28;20436;-76
2022/11/14 07:36:04;;;;;;;16.40;10.13;;;-14.70;99.90;;;;;;5074390;28;20526;-77
2022/11/14 07:38:31;;;;;;;16.10;11.57;;;-14.50;99.90;;;;;;5093194;28;20469;-71
2022/11/14 07:40:58;;;;;;;20.97;10.87;;;-14.50;99.90;;;;;;5098592;28;20880;-71
2022/11/14 07:43:24;;;;;;;17.57;10.67;;;-14.00;99.90;;;;;;5091117;28;20492;-71
2022/11/14 07:45:50;;;;;;;14.53;10.30;;;-13.80;99.90;;;;;;5096196;28;20423;-71
2022/11/14 07:48:16;;;;;;;14.13;9.93;;;-13.60;99.90;;;;;;5093393;28;20862;-71
2022/11/14 07:50:43;;;;;;;16.60;11.13;;;-13.60;99.90;;;;;;5093237;28;20427;-76
2022/11/14 07:53:09;;;;;;;18.97;10.43;;;-13.60;99.90;;;;;;5090791;28;20461;-72
2022/11/14 07:55:35;;;;;;;15.57;10.53;;;-13.60;99.90;;;;;;5090432;28;20455;-75
2022/11/14 07:58:02;;;;;;;19.43;10.00;;;-13.50;99.90;;;;;;5098454;28;20426;-73
2022/11/14 08:00:28;;;;;;;18.63;10.63;;;-13.30;99.90;;;;;;5098594;28;20424;-74
2022/11/14 08:02:54;;;;;;;15.33;10.73;;;-13.50;99.90;;;;;;5097976;28;20565;-72
2022/11/14 08:05:20;;;;;;;19.60;10.93;;;-14.20;99.90;;;;;;5098218;28;20518;-74
2022/11/14 08:07:46;;;;;;;23.87;10.63;;;-14.20;99.90;;;;;;5097847;28;20486;-76
2022/11/14 08:10:13;;;;;;;17.13;9.43;;;-14.30;99.90;;;;;;5098259;28;20543;-73
2022/11/14 08:12:39;;;;;;;21.93;10.60;;;-14.50;99.90;;;;;;5087123;28;20652;-74
2022/11/14 08:15:07;;;;;;;19.13;11.63;;;-14.80;99.90;;;;;;5086059;28;20548;-74
2022/11/14 08:17:33;;;;;;;23.40;12.60;;;-15.10;99.90;;;;;;5092119;28;20453;-71
2022/11/14 08:19:59;;;;;;;19.03;11.23;;;-15.40;99.90;;;;;;5090059;28;20520;-72
2022/11/14 08:22:25;;;;;;;14.60;10.97;;;-16.00;99.90;;;;;;5089856;28;20751;-71
2022/11/14 08:24:51;;;;;;;26.63;11.80;;;-14.50;99.90;;;;;;5096834;28;20862;-72
2022/11/14 08:27:17;;;;;;;16.40;11.67;;;-16.00;99.90;;;;;;5086051;28;20860;-72
2022/11/14 08:29:43;;;;;;;29.07;12.60;;;-15.90;99.90;;;;;;5091949;28;20259;-75
2022/11/14 08:32:09;;;;;;;20.63;12.30;;;-17.30;99.90;;;;;;5089850;28;20427;-73
2022/11/14 08:34:35;;;;;;;25.87;11.60;;;-18.50;99.90;;;;;;5092659;28;20518;-72
2022/11/14 08:37:02;;;;;;;24.97;13.43;;;-18.10;99.90;;;;;;5081761;28;20454;-74
2022/11/14 08:39:28;;;;;;;20.37;13.67;;;-18.80;99.90;;;;;;5095131;28;20426;-73
2022/11/14 08:41:54;;;;;;;24.93;13.37;;;-18.80;99.90;;;;;;5095454;27;20427;-71
2022/11/14 08:44:20;;;;;;;20.30;10.17;;;-18.20;99.90;;;;;;5092107;28;20277;-74
2022/11/14 08:46:46;;;;;;;24.60;12.03;;;-17.70;99.90;;;;;;5091955;28;20554;-72
2022/11/14 08:49:12;;;;;;;16.10;11.00;;;-18.70;99.90;;;;;;5096745;28;20178;-72
2022/11/14 08:51:37;;;;;;;26.27;11.47;;;-19.20;99.90;;;;;;5096684;28;20506;-74
2022/11/14 08:54:03;;;;;;;15.70;10.37;;;-19.10;99.90;;;;;;5090267;28;20244;-74
2022/11/14 08:56:29;;;;;;;16.80;10.93;;;-20.10;99.90;;;;;;5094471;28;20210;-75
2022/11/14 08:58:55;;;;;;;16.53;11.70;;;-21.30;99.90;;;;;;5083664;28;20179;-73
2022/11/14 09:01:20;;;;;;;21.07;10.90;;;-19.80;99.90;;;;;;5095116;28;20179;-75
2022/11/14 09:03:46;;;;;;;16.13;9.57;;;-19.70;99.90;;;;;;5095838;28;20210;-76
2022/11/14 09:06:16;;;;;;;20.77;12.43;;;-19.70;99.90;;;;;;5085253;28;20186;-72
2022/11/14 09:08:42;;;;;;;18.00;10.77;;;-19.90;99.90;;;;;;5086341;28;20193;-73
2022/11/14 09:11:08;;;;;;;15.30;12.70;;;-18.70;99.90;;;;;;5090732;28;20441;-71
2022/11/14 09:13:34;;;;;;;23.33;12.27;;;-21.60;99.90;;;;;;5089894;28;20186;-71
2022/11/14 09:16:00;;;;;;;15.87;11.40;;;-20.60;99.90;;;;;;5094574;28;20233;-72
2022/11/14 09:18:26;;;;;;;23.00;13.60;;;-19.70;99.90;;;;;;5095754;28;20858;-74
2022/11/14 09:20:52;;;;;;;21.33;15.00;;;-18.80;99.90;;;;;;5096009;28;20443;-71
2022/11/14 09:23:18;;;;;;;27.20;13.03;;;-20.40;99.90;;;;;;5092269;28;20185;-71
2022/11/14 09:25:44;;;;;;;18.73;12.97;;;-22.30;99.90;;;;;;5094132;28;20428;-72
2022/11/14 09:28:09;;;;;;;20.17;13.80;;;-21.40;99.90;;;;;;5105639;27;20267;-70
2022/11/14 09:30:36;;;;;;;20.17;12.73;;;-23.00;99.90;;;;;;5092286;28;20184;-72
2022/11/14 09:33:03;;;;;;;18.03;13.43;;;-22.10;99.90;;;;;;5095917;28;20218;-71
2022/11/14 09:35:30;;;;;;;18.43;13.87;;;-18.80;99.90;;;;;;5088172;28;20546;-73
2022/11/14 09:38:00;;;;;;;20.80;13.47;;;-18.90;99.90;;;;;;5094912;28;20430;-73
2022/11/14 09:40:27;;;;;;;17.23;13.60;;;-20.60;99.90;;;;;;5096158;28;20425;-75
2022/11/14 09:43:38;;;;;;;20.20;12.93;;;-20.60;99.90;;;;;;5095773;28;20425;-75
2022/11/14 09:46:15;;;;;;;22.53;13.63;;;-19.10;99.90;;;;;;5073111;28;20455;-71
2022/11/14 09:48:41;;;;;;;17.17;12.90;;;-19.90;99.90;;;;;;5090702;28;20471;-75
2022/11/14 09:51:14;;;;;;;16.80;12.77;;;-20.30;99.90;;;;;;5095979;28;20423;-74
2022/11/14 09:53:59;;;;;;;22.70;14.73;;;-23.10;99.90;;;;;;5082254;28;20219;-71
2022/11/14 09:56:25;;;;;;;24.80;14.73;;;-20.70;99.90;;;;;;5084633;28;20474;-72
2022/11/14 09:58:55;;;;;;;22.60;14.80;;;-19.40;99.90;;;;;;5088050;28;20430;-73
2022/11/14 10:01:50;;;;;;;18.53;13.17;;;-17.80;99.90;;;;;;5095645;28;20852;-72
2022/11/14 10:04:43;;;;;;;17.57;14.17;;;-20.10;99.90;;;;;;5085178;28;20435;-73
2022/11/14 10:07:30;;;;;;;21.80;14.73;;;-19.00;99.90;;;;;;5087787;28;20434;-73
2022/11/14 10:10:24;;;;;;;22.80;15.67;;;-20.10;99.90;;;;;;5089992;28;20915;-73
2022/11/14 10:12:55;;;;;;;21.93;13.97;;;-20.20;99.90;;;;;;5084520;28;20427;-73
2022/11/14 10:15:39;;;;;;;18.27;14.27;;;-18.70;99.90;;;;;;5094217;28;20456;-73
2022/11/14 10:18:32;;;;;;;23.77;15.57;;;-16.70;99.90;;;;;;5090820;28;20423;-73
2022/11/14 10:21:30;;;;;;;24.17;15.70;;;-18.20;99.90;;;;;;5092152;28;20475;-72
2022/11/14 10:24:10;;;;;;;24.63;16.67;;;-18.80;99.90;;;;;;5063914;28;20447;-72
2022/11/14 10:26:50;;;;;;;15.93;13.73;;;-18.70;99.90;;;;;;5086956;28;20239;-74
2022/11/14 10:29:40;;;;;;;20.67;14.27;;;-20.10;99.90;;;;;;5091405;28;20465;-72
2022/11/14 10:32:43;;;;;;;22.73;17.03;;;-19.70;99.90;;;;;;5092146;28;20651;-74
2022/11/14 10:35:20;;;;;;;22.03;15.27;;;-18.90;99.90;;;;;;5089120;28;20217;-72
2022/11/14 10:38:07;;;;;;;19.67;16.07;;;-20.50;99.90;;;;;;5095860;28;20257;-72
2022/11/14 10:40:39;;;;;;;23.23;16.27;;;-20.70;99.90;;;;;;5085813;28;20183;-72
2022/11/14 10:43:14;;;;;;;23.77;15.10;;;-20.10;99.90;;;;;;5091714;28;20179;-73
2022/11/14 10:45:45;;;;;;;16.63;14.93;;;-17.50;99.90;;;;;;5095563;28;20178;-72
2022/11/14 10:48:18;;;;;;;24.93;16.27;;;-17.20;99.90;;;;;;5093239;28;20312;-75
2022/11/14 10:50:49;;;;;;;16.87;14.90;;;-21.20;99.90;;;;;;5086670;28;20187;-74
2022/11/14 10:53:27;;;;;;;20.63;14.40;;;-19.20;99.90;;;;;;5099842;28;20285;-78
2022/11/14 10:55:55;;;;;;;23.83;16.07;;;-19.90;99.90;;;;;;5101853;27;20232;-76
2022/11/14 10:58:21;;;;;;;26.67;15.57;;;-17.40;99.90;;;;;;5087402;28;20182;-74
2022/11/14 11:00:47;;;;;;;19.53;14.23;;;-17.00;99.90;;;;;;5088239;28;20178;-73
2022/11/14 11:03:12;;;;;;;25.23;16.50;;;-18.40;99.90;;;;;;5092092;28;20259;-74
2022/11/14 11:05:50;;;;;;;18.00;14.80;;;-17.80;99.90;;;;;;5115436;27;20218;-75
2022/11/14 11:11:29;;;;;;;17.87;14.10;;;-22.60;99.90;;;;;;5094957;28;20597;-74
2022/11/14 11:14:00;;;;;;;19.10;16.07;;;-21.40;99.90;;;;;;5095574;28;20643;-75
2022/11/14 11:16:27;;;;;;;21.57;17.37;;;-21.20;99.90;;;;;;5091214;28;20214;-76
2022/11/14 11:19:01;;;;;;;16.80;14.27;;;-18.50;99.90;;;;;;5095669;28;20206;-73
2022/11/14 11:21:48;;;;;;;22.13;16.37;;;-21.20;99.90;;;;;;5099266;28;20269;-76
2022/11/14 11:24:34;;;;;;;18.87;16.77;;;-18.00;99.90;;;;;;5099576;28;20182;-74
2022/11/14 11:27:21;;;;;;;19.77;15.43;;;-16.60;99.90;;;;;;5099241;28;20187;-75
2022/11/14 11:30:21;;;;;;;16.83;14.83;;;-18.30;99.90;;;;;;5093395;28;20574;-74
2022/11/14 11:32:48;;;;;;;22.23;15.47;;;-18.30;99.90;;;;;;5097253;28;20179;-75
2022/11/14 11:35:16;;;;;;;18.87;16.77;;;-18.80;99.90;;;;;;5088393;28;20209;-75
2022/11/14 11:37:54;;;;;;;17.87;15.53;;;-16.90;99.90;;;;;;5085671;28;20236;-74
2022/11/14 11:40:26;;;;;;;20.97;15.77;;;-18.10;99.90;;;;;;5100625;28;20174;-75
2022/11/14 11:43:03;;;;;;;18.60;16.67;;;-23.10;99.90;;;;;;5093469;28;20175;-77
2022/11/14 11:45:30;;;;;;;20.23;17.37;;;-19.80;99.90;;;;;;5098291;28;20200;-75
2022/11/14 11:48:05;;;;;;;18.50;15.13;;;-19.50;99.90;;;;;;5088362;28;20210;-75
2022/11/14 11:50:31;;;;;;;18.53;15.23;;;-16.00;99.90;;;;;;5085433;28;20186;-77
2022/11/14 11:53:29;;;;;;;18.93;15.80;;;-19.60;99.90;;;;;;5091688;28;20514;-75
2022/11/14 11:56:08;;;;;;;18.00;15.70;;;-17.10;99.90;;;;;;5085353;28;20626;-74
2022/11/14 11:58:47;;;;;;;18.03;15.83;;;-17.90;99.90;;;;;;5097845;28;20179;-74
2022/11/14 12:01:13;;;;;;;23.77;16.93;;;-18.30;99.90;;;;;;5098277;28;20227;-74
2022/11/14 12:03:45;;;;;;;17.33;15.70;;;-18.80;99.90;;;;;;5087701;28;20191;-72
2022/11/14 12:06:23;;;;;;;22.40;17.13;;;-17.10;99.90;;;;;;5089147;28;20222;-75
2022/11/14 12:09:11;;;;;;;20.37;17.30;;;-16.90;99.90;;;;;;5086774;28;20276;-74
2022/11/14 12:11:43;;;;;;;20.20;15.97;;;-16.80;99.90;;;;;;5093854;28;20640;-73
2022/11/14 12:14:11;;;;;;;16.83;14.03;;;-15.60;99.90;;;;;;5093598;28;20187;-75
2022/11/14 12:17:02;;;;;;;18.47;15.90;;;-14.70;99.90;;;;;;5095513;28;20225;-72
2022/11/14 12:19:41;;;;;;;21.13;14.43;;;-15.20;99.90;;;;;;5095263;28;20178;-73
2022/11/14 12:22:15;;;;;;;23.37;15.77;;;-14.20;99.90;;;;;;5085096;28;20582;-74
2022/11/14 12:25:04;;;;;;;22.87;16.93;;;-14.80;99.90;;;;;;5092666;28;20174;-74
2022/11/14 12:27:56;;;;;;;18.90;15.20;;;-15.50;99.90;;;;;;5095733;28;20183;-75
2022/11/14 12:30:23;;;;;;;24.20;16.13;;;-17.20;99.90;;;;;;5085983;28;20222;-75